createdAt,value
2022-12-25T00:01:32.956Z,20.23
2022-12-25T00:04:00.336Z,25.95
2022-12-25T00:06:28.124Z,26.67
2022-12-25T00:08:55.338Z,24.80
2022-12-25T00:11:22.920Z,25.95
2022-12-25T00:13:51.065Z,24.27
2022-12-25T00:16:23.526Z,25.25
2022-12-25T00:18:58.944Z,24.10
2022-12-25T00:21:27.294Z,22.77
2022-12-25T00:23:57.282Z,30.35
2022-12-25T00:26:26.550Z,30.20
2022-12-25T00:28:57.996Z,22.48
2022-12-25T00:31:26.515Z,25.58
2022-12-25T00:33:54.115Z,26.10
2022-12-25T00:36:23.721Z,24.52
2022-12-25T00:38:51.034Z,23.92
2022-12-25T00:41:41.298Z,22.17
2022-12-25T00:44:11.371Z,22.33
2022-12-25T00:46:39.104Z,24.02
2022-12-25T00:49:07.079Z,26.02
2022-12-25T00:51:34.687Z,29.08
2022-12-25T00:54:02.508Z,32.67
2022-12-25T00:56:30.117Z,34.60
2022-12-25T00:58:57.402Z,36.65
2022-12-25T01:01:25.023Z,38.28
2022-12-25T01:03:52.340Z,36.63
2022-12-25T01:06:19.842Z,36.05
2022-12-25T01:09:05.768Z,32.28
2022-12-25T01:11:33.505Z,37.20
2022-12-25T01:14:00.854Z,34.85
2022-12-25T01:16:29.416Z,31.58
2022-12-25T01:18:56.754Z,41.10
2022-12-25T01:21:24.633Z,32.33
2022-12-25T01:23:53.573Z,35.92
2022-12-25T01:26:25.583Z,33.08
2022-12-25T01:28:54.002Z,34.30
2022-12-25T01:31:24.739Z,37.70
2022-12-25T01:33:52.839Z,32.00
2022-12-25T01:36:24.995Z,38.20
2022-12-25T01:38:54.100Z,45.10
2022-12-25T01:41:24.768Z,45.28
2022-12-25T01:44:04.918Z,46.03
2022-12-25T01:46:33.945Z,46.35
2022-12-25T01:49:15.147Z,44.70
2022-12-25T01:51:46.571Z,45.33
2022-12-25T01:54:24.488Z,44.08
2022-12-25T01:56:57.558Z,41.97
2022-12-25T01:59:28.032Z,40.67
2022-12-25T02:01:57.163Z,46.65
2022-12-25T02:04:38.960Z,47.90
2022-12-25T02:07:24.437Z,46.03
2022-12-25T02:09:52.886Z,42.10
2022-12-25T02:12:23.820Z,46.25
2022-12-25T02:14:58.344Z,48.47
2022-12-25T02:17:33.093Z,43.92
2022-12-25T02:20:27.681Z,47.80
2022-12-25T02:23:31.886Z,48.00
2022-12-25T02:26:45.349Z,45.83
2022-12-25T02:29:42.615Z,46.95
2022-12-25T02:32:32.003Z,41.05
2022-12-25T02:35:08.656Z,40.65
2022-12-25T02:38:11.022Z,44.05
2022-12-25T02:40:46.479Z,38.50
2022-12-25T02:43:45.091Z,45.85
2022-12-25T02:46:36.616Z,39.85
2022-12-25T02:49:33.915Z,41.85
2022-12-25T02:52:35.418Z,41.05
2022-12-25T02:55:32.552Z,41.53
2022-12-25T02:58:27.272Z,41.22
2022-12-25T03:01:22.635Z,40.75
2022-12-25T03:04:15.271Z,39.17
2022-12-25T03:06:59.666Z,42.97
2022-12-25T03:09:54.079Z,42.28
2022-12-25T03:12:38.847Z,37.55
2022-12-25T03:15:28.626Z,35.38
2022-12-25T03:18:01.570Z,38.30
2022-12-25T03:20:49.103Z,36.90
2022-12-25T03:23:44.654Z,43.72
2022-12-25T03:26:30.932Z,42.10
2022-12-25T03:28:58.237Z,38.53
2022-12-25T03:31:51.544Z,39.22
2022-12-25T03:35:07.255Z,37.60
2022-12-25T03:38:23.431Z,40.90
2022-12-25T03:41:12.196Z,38.95
2022-12-25T03:44:26.551Z,33.30
2022-12-25T03:47:37.353Z,40.67
2022-12-25T03:50:36.717Z,36.33
2022-12-25T03:53:29.639Z,38.03
2022-12-25T03:56:17.686Z,35.53
2022-12-25T03:59:23.191Z,36.83
2022-12-25T04:02:10.870Z,34.85
2022-12-25T04:04:57.055Z,34.05
2022-12-25T04:07:43.313Z,36.95
2022-12-25T04:10:29.499Z,33.00
2022-12-25T04:13:15.560Z,34.20
2022-12-25T04:16:01.326Z,29.75
2022-12-25T04:18:47.434Z,29.70
2022-12-25T04:21:33.283Z,29.27
2022-12-25T04:24:19.525Z,27.08
2022-12-25T04:27:05.228Z,29.55
2022-12-25T04:29:51.054Z,33.20
2022-12-25T04:32:36.853Z,28.80
2022-12-25T04:35:23.335Z,30.67
2022-12-25T04:37:50.624Z,28.30
2022-12-25T04:40:19.257Z,28.83
2022-12-25T04:42:46.634Z,30.25
2022-12-25T04:45:14.131Z,30.20
2022-12-25T04:47:41.332Z,31.90
2022-12-25T04:50:09.450Z,24.42
2022-12-25T04:52:39.533Z,28.95
2022-12-25T04:55:10.074Z,25.27
2022-12-25T04:57:37.693Z,25.60
2022-12-25T05:00:07.170Z,27.30
2022-12-25T05:02:34.781Z,26.52
2022-12-25T05:05:02.559Z,30.13
2022-12-25T05:07:29.898Z,27.50
2022-12-25T05:09:58.337Z,25.70
2022-12-25T05:12:25.660Z,27.73
2022-12-25T05:14:53.191Z,24.08
2022-12-25T05:17:20.566Z,28.73
2022-12-25T05:19:48.089Z,34.65
2022-12-25T05:22:15.397Z,28.13
2022-12-25T05:24:42.899Z,31.42
2022-12-25T05:27:10.149Z,41.45
2022-12-25T05:29:37.688Z,41.13
2022-12-25T05:32:05.311Z,35.30
2022-12-25T05:34:33.008Z,35.70
2022-12-25T05:37:00.354Z,35.55
2022-12-25T05:39:27.857Z,34.22
2022-12-25T05:41:55.223Z,34.50
2022-12-25T05:44:23.032Z,39.75
2022-12-25T05:46:50.449Z,33.50
2022-12-25T05:49:18.112Z,33.50
2022-12-25T05:51:45.376Z,35.78
2022-12-25T05:54:12.938Z,35.00
2022-12-25T05:56:40.145Z,36.10
2022-12-25T05:59:07.644Z,34.45
2022-12-25T06:01:34.973Z,37.70
2022-12-25T06:04:05.807Z,37.80
2022-12-25T06:06:37.556Z,36.65
2022-12-25T06:09:05.022Z,43.90
2022-12-25T06:11:32.275Z,43.42
2022-12-25T06:13:59.774Z,40.58
2022-12-25T06:16:27.078Z,38.47
2022-12-25T06:18:54.647Z,45.22
2022-12-25T06:21:22.122Z,45.75
2022-12-25T06:23:49.838Z,46.03
2022-12-25T06:26:19.549Z,45.50
2022-12-25T06:28:47.997Z,39.38
2022-12-25T06:31:20.888Z,36.72
2022-12-25T06:33:49.812Z,40.45
2022-12-25T06:36:22.806Z,40.92
2022-12-25T06:38:51.100Z,35.90
2022-12-25T06:41:25.489Z,33.75
2022-12-25T06:43:58.124Z,40.15
2022-12-25T06:46:28.639Z,39.50
2022-12-25T06:48:58.210Z,37.15
2022-12-25T06:51:30.166Z,43.55
2022-12-25T06:53:59.014Z,33.97
2022-12-25T06:56:28.641Z,39.03
2022-12-25T06:59:02.758Z,43.58
2022-12-25T07:02:12.875Z,44.25
2022-12-25T07:04:43.172Z,42.58
2022-12-25T07:07:10.860Z,43.10
2022-12-25T07:09:39.359Z,43.35
2022-12-25T07:12:19.960Z,37.95
2022-12-25T07:14:50.187Z,42.28
2022-12-25T07:17:18.933Z,33.92
2022-12-25T07:19:47.464Z,39.45
2022-12-25T07:22:15.845Z,37.35
2022-12-25T07:24:43.450Z,42.20
2022-12-25T07:27:11.091Z,36.58
2022-12-25T07:29:38.654Z,41.17
2022-12-25T07:32:07.033Z,39.47
2022-12-25T07:34:34.665Z,37.40
2022-12-25T07:37:02.011Z,35.75
2022-12-25T07:39:29.555Z,45.45
2022-12-25T07:41:56.886Z,34.83
2022-12-25T07:44:24.836Z,41.00
2022-12-25T07:46:52.125Z,41.60
2022-12-25T07:49:19.873Z,36.28
2022-12-25T07:51:47.167Z,36.47
2022-12-25T07:54:14.777Z,42.55
2022-12-25T07:56:41.975Z,45.08
2022-12-25T07:59:09.472Z,39.05
2022-12-25T08:01:36.830Z,39.00
2022-12-25T08:04:04.632Z,37.88
2022-12-25T08:06:35.208Z,37.67
2022-12-25T08:09:09.652Z,39.67
2022-12-25T08:11:38.461Z,38.45
2022-12-25T08:14:08.787Z,39.35
2022-12-25T08:16:39.966Z,39.40
2022-12-25T08:19:08.594Z,36.88
2022-12-25T08:21:36.263Z,39.53
2022-12-25T08:24:03.875Z,40.00
2022-12-25T08:26:31.528Z,35.53
2022-12-25T08:28:59.006Z,42.40
2022-12-25T08:31:30.018Z,36.45
2022-12-25T08:33:58.719Z,33.75
2022-12-25T08:36:26.384Z,41.38
2022-12-25T08:39:00.355Z,33.90
2022-12-25T08:41:30.231Z,38.45
2022-12-25T08:43:57.984Z,36.53
2022-12-25T08:46:25.579Z,30.73
2022-12-25T08:48:52.855Z,30.63
2022-12-25T08:51:23.416Z,34.33
2022-12-25T08:53:53.245Z,32.70
2022-12-25T08:56:21.233Z,31.63
2022-12-25T08:58:48.461Z,24.98
2022-12-25T09:01:15.989Z,25.80
2022-12-25T09:03:43.885Z,28.00
2022-12-25T09:06:16.562Z,28.40
2022-12-25T09:08:49.273Z,32.83
2022-12-25T09:11:19.967Z,25.52
2022-12-25T09:13:48.981Z,25.13
2022-12-25T09:16:21.232Z,26.90
2022-12-25T09:18:49.482Z,21.05
2022-12-25T09:21:19.255Z,22.35
2022-12-25T09:23:46.537Z,20.50
2022-12-25T09:26:18.063Z,18.45
2022-12-25T09:28:51.184Z,18.58
2022-12-25T09:31:22.059Z,19.55
2022-12-25T09:33:50.834Z,18.55
2022-12-25T09:36:18.794Z,14.38
2022-12-25T09:38:46.039Z,17.80
2022-12-25T09:41:53.760Z,14.02
2022-12-25T09:44:38.015Z,17.40
2022-12-25T09:47:14.336Z,18.30
2022-12-25T09:49:54.424Z,13.30
2022-12-25T09:52:52.790Z,16.33
2022-12-25T09:55:26.928Z,18.58
2022-12-25T09:58:01.573Z,19.83
2022-12-25T10:00:59.768Z,14.88
2022-12-25T10:03:40.785Z,16.20
2022-12-25T10:06:25.271Z,17.00
2022-12-25T10:09:36.077Z,17.95
2022-12-25T10:12:55.042Z,15.57
2022-12-25T10:15:59.020Z,13.90
2022-12-25T10:18:57.128Z,13.38
2022-12-25T10:21:25.408Z,16.20
2022-12-25T10:23:58.744Z,17.88
2022-12-25T10:26:30.018Z,12.80
2022-12-25T10:29:13.300Z,14.80
2022-12-25T10:31:45.432Z,14.27
2022-12-25T10:34:15.297Z,17.10
2022-12-25T10:36:46.402Z,16.75
2022-12-25T10:39:26.590Z,13.90
2022-12-25T10:42:40.597Z,16.23
2022-12-25T10:45:09.931Z,13.55
2022-12-25T10:47:42.667Z,18.17
2022-12-25T10:50:21.457Z,14.93
2022-12-25T10:53:04.443Z,16.15
2022-12-25T10:55:33.379Z,18.08
2022-12-25T10:58:02.306Z,17.98
2022-12-25T11:00:33.122Z,19.10
2022-12-25T11:03:01.149Z,15.82
2022-12-25T11:05:36.534Z,14.13
2022-12-25T11:08:15.766Z,13.82
2022-12-25T11:10:44.170Z,14.70
2022-12-25T11:13:30.784Z,12.55
2022-12-25T11:16:11.979Z,15.18
2022-12-25T11:18:53.773Z,13.70
2022-12-25T11:21:32.171Z,14.55
2022-12-25T11:24:06.925Z,12.90
2022-12-25T11:26:49.700Z,12.88
2022-12-25T11:29:39.018Z,13.68
2022-12-25T11:32:19.468Z,10.77
2022-12-25T11:34:49.184Z,12.90
2022-12-25T11:37:41.962Z,11.93
2022-12-25T11:40:41.719Z,13.48
2022-12-25T11:43:48.725Z,13.88
2022-12-25T11:46:31.388Z,14.63
2022-12-25T11:49:08.313Z,12.10
2022-12-25T11:51:43.610Z,15.23
2022-12-25T11:54:10.853Z,13.07
2022-12-25T11:56:38.763Z,13.38
2022-12-25T11:59:37.392Z,13.43
2022-12-25T12:02:49.637Z,13.90
2022-12-25T12:05:17.337Z,12.68
2022-12-25T12:08:06.475Z,11.82
2022-12-25T12:11:18.407Z,12.68
2022-12-25T12:14:14.985Z,13.27
2022-12-25T12:16:42.435Z,11.30
2022-12-25T12:19:34.581Z,11.93
2022-12-25T12:22:05.152Z,12.40
2022-12-25T12:24:44.305Z,12.02
2022-12-25T12:27:27.911Z,13.50
2022-12-25T12:29:59.787Z,11.45
2022-12-25T12:32:43.177Z,11.57
2022-12-25T12:35:28.020Z,11.85
2022-12-25T12:38:17.170Z,10.90
2022-12-25T12:41:04.748Z,9.43
2022-12-25T12:43:39.043Z,11.35
2022-12-25T12:46:31.571Z,11.40
2022-12-25T12:49:35.145Z,10.25
2022-12-25T12:52:23.914Z,9.95
2022-12-25T12:54:59.233Z,9.88
2022-12-25T12:57:32.828Z,11.85
2022-12-25T13:00:08.691Z,9.30
2022-12-25T13:03:06.136Z,9.05
2022-12-25T13:05:46.246Z,8.02
2022-12-25T13:09:15.849Z,8.88
2022-12-25T13:11:44.802Z,9.40
2022-12-25T13:14:23.182Z,9.02
2022-12-25T13:16:54.818Z,9.95
2022-12-25T13:19:27.538Z,9.77
2022-12-25T13:22:01.983Z,9.32
2022-12-25T13:24:34.230Z,9.18
2022-12-25T13:27:26.730Z,9.25
2022-12-25T13:29:54.597Z,10.30
2022-12-25T13:32:34.158Z,11.73
2022-12-25T13:35:02.340Z,10.77
2022-12-25T13:37:31.893Z,11.23
2022-12-25T13:40:07.298Z,12.38
2022-12-25T13:42:40.142Z,11.25
2022-12-25T13:45:14.531Z,11.57
2022-12-25T13:48:01.885Z,11.07
2022-12-25T13:50:34.647Z,10.68
2022-12-25T13:53:16.615Z,14.10
2022-12-25T13:55:55.524Z,15.90
2022-12-25T13:58:30.888Z,16.23
2022-12-25T14:01:03.063Z,15.32
2022-12-25T14:03:46.577Z,15.20
2022-12-25T14:06:20.655Z,17.58
2022-12-25T14:08:50.348Z,16.63
2022-12-25T14:11:25.780Z,18.27
2022-12-25T14:14:03.211Z,16.60
2022-12-25T14:16:32.744Z,17.92
2022-12-25T14:19:02.951Z,17.23
2022-12-25T14:21:41.857Z,17.58
2022-12-25T14:24:17.353Z,17.45
2022-12-25T14:26:45.135Z,18.00
2022-12-25T14:29:20.446Z,19.58
2022-12-25T14:31:50.190Z,20.35
2022-12-25T14:34:27.595Z,19.27
2022-12-25T14:36:55.568Z,20.25
2022-12-25T14:39:35.202Z,21.13
2022-12-25T14:42:20.693Z,21.35
2022-12-25T14:45:35.953Z,21.00
2022-12-25T14:48:25.461Z,21.45
2022-12-25T14:51:30.602Z,25.77
2022-12-25T14:54:03.368Z,25.77
2022-12-25T14:56:39.276Z,30.52
2022-12-25T14:59:10.292Z,24.60
2022-12-25T15:01:41.561Z,24.17
2022-12-25T15:04:12.117Z,22.50
2022-12-25T15:06:51.752Z,22.58
2022-12-25T15:09:19.527Z,23.80
2022-12-25T15:11:56.405Z,21.50
2022-12-25T15:14:26.215Z,24.58
2022-12-25T15:17:01.370Z,25.95
2022-12-25T15:19:38.869Z,29.05
2022-12-25T15:22:06.717Z,30.08
2022-12-25T15:24:34.252Z,28.67
2022-12-25T15:27:01.677Z,31.35
2022-12-25T15:30:07.976Z,27.33
2022-12-25T15:32:20.675Z,33.70
2022-12-25T15:34:50.050Z,32.35
2022-12-25T15:37:20.484Z,32.83
2022-12-25T15:39:47.978Z,30.98
2022-12-25T15:42:21.746Z,26.20
2022-12-25T15:44:49.966Z,26.95
2022-12-25T15:47:20.269Z,25.90
2022-12-25T15:49:47.976Z,24.75
2022-12-25T15:52:17.661Z,25.33
2022-12-25T15:54:45.460Z,21.15
2022-12-25T15:57:23.139Z,22.35
2022-12-25T15:59:50.660Z,23.65
2022-12-25T16:02:20.848Z,23.27
2022-12-25T16:04:51.080Z,18.65
2022-12-25T16:07:23.594Z,21.88
2022-12-25T16:09:52.014Z,18.58
2022-12-25T16:12:19.970Z,18.25
2022-12-25T16:14:47.532Z,22.35
2022-12-25T16:17:17.170Z,19.45
2022-12-25T16:19:45.545Z,22.98
2022-12-25T16:22:18.605Z,17.75
2022-12-25T16:24:51.908Z,19.95
2022-12-25T16:27:19.163Z,20.73
2022-12-25T16:29:47.226Z,25.83
2022-12-25T16:32:15.966Z,22.75
2022-12-25T16:34:43.671Z,21.52
2022-12-25T16:37:10.949Z,22.27
2022-12-25T16:39:38.580Z,17.83
2022-12-25T16:42:06.008Z,22.58
2022-12-25T16:44:37.611Z,23.50
2022-12-25T16:47:04.961Z,25.58
2022-12-25T16:49:32.644Z,25.98
2022-12-25T16:51:59.886Z,27.92
2022-12-25T16:54:27.528Z,31.33
2022-12-25T16:56:54.766Z,32.88
2022-12-25T16:59:22.359Z,38.55
2022-12-25T17:01:49.721Z,40.33
2022-12-25T17:04:17.350Z,43.67
2022-12-25T17:06:44.604Z,41.03
2022-12-25T17:09:12.386Z,41.83
2022-12-25T17:11:39.801Z,39.70
2022-12-25T17:14:07.430Z,35.17
2022-12-25T17:16:38.158Z,32.85
2022-12-25T17:19:15.967Z,35.85
2022-12-25T17:21:43.359Z,31.55
2022-12-25T17:24:10.975Z,29.55
2022-12-25T17:26:40.750Z,34.33
2022-12-25T17:29:10.327Z,30.65
2022-12-25T17:31:39.586Z,28.17
2022-12-25T17:34:09.108Z,29.30
2022-12-25T17:36:37.132Z,30.45
2022-12-25T17:39:06.439Z,30.35
2022-12-25T17:41:34.526Z,31.92
2022-12-25T17:44:02.613Z,28.90
2022-12-25T17:46:31.539Z,27.42
2022-12-25T17:49:01.191Z,31.35
2022-12-25T17:51:30.990Z,28.05
2022-12-25T17:54:03.354Z,29.38
2022-12-25T17:56:32.476Z,29.27
2022-12-25T17:59:08.212Z,31.27
2022-12-25T18:01:38.852Z,38.42
2022-12-25T18:04:07.375Z,31.77
2022-12-25T18:06:36.665Z,31.00
2022-12-25T18:09:06.386Z,26.65
2022-12-25T18:11:34.018Z,30.77
2022-12-25T18:14:07.343Z,29.17
2022-12-25T18:16:38.512Z,33.80
2022-12-25T18:19:06.813Z,32.10
2022-12-25T18:21:34.270Z,35.85
2022-12-25T18:24:06.445Z,37.08
2022-12-25T18:26:34.295Z,34.78
2022-12-25T18:29:02.328Z,35.75
2022-12-25T18:31:32.822Z,37.30
2022-12-25T18:34:00.816Z,40.10
2022-12-25T18:36:30.045Z,42.75
2022-12-25T18:38:58.933Z,45.75
2022-12-25T18:41:28.828Z,38.58
2022-12-25T18:43:59.829Z,36.00
2022-12-25T18:46:28.061Z,36.25
2022-12-25T18:48:57.193Z,37.78
2022-12-25T18:51:27.691Z,34.08
2022-12-25T18:53:58.809Z,32.97
2022-12-25T18:56:26.127Z,34.17
2022-12-25T18:58:53.628Z,32.40
2022-12-25T19:01:23.836Z,35.10
2022-12-25T19:03:56.066Z,36.83
2022-12-25T19:06:32.701Z,30.67
2022-12-25T19:09:00.334Z,46.40
2022-12-25T19:11:27.684Z,40.50
2022-12-25T19:13:56.035Z,33.78
2022-12-25T19:16:23.368Z,34.38
2022-12-25T19:18:50.993Z,32.55
2022-12-25T19:21:18.245Z,30.10
2022-12-25T19:23:45.972Z,30.52
2022-12-25T19:26:13.294Z,32.97
2022-12-25T19:28:41.488Z,37.10
2022-12-25T19:31:10.132Z,34.67
2022-12-25T19:33:40.470Z,36.42
2022-12-25T19:36:12.852Z,38.78
2022-12-25T19:38:40.974Z,34.35
2022-12-25T19:41:17.828Z,35.65
2022-12-25T19:43:48.196Z,33.92
2022-12-25T19:46:26.282Z,33.92
2022-12-25T19:48:56.307Z,32.83
2022-12-25T19:51:29.056Z,35.55
2022-12-25T19:53:57.098Z,32.05
2022-12-25T19:56:26.784Z,33.40
2022-12-25T19:58:55.775Z,31.27
2022-12-25T20:01:27.436Z,31.17
2022-12-25T20:03:55.763Z,30.75
2022-12-25T20:06:32.852Z,33.05
2022-12-25T20:09:07.410Z,30.80
2022-12-25T20:11:37.304Z,30.13
2022-12-25T20:14:07.355Z,32.30
2022-12-25T20:16:38.743Z,33.13
2022-12-25T20:19:07.723Z,29.50
2022-12-25T20:21:35.432Z,31.83
2022-12-25T20:24:03.255Z,32.65
2022-12-25T20:26:32.392Z,27.67
2022-12-25T20:29:00.123Z,31.60
2022-12-25T20:31:31.343Z,35.08
2022-12-25T20:34:06.083Z,32.75
2022-12-25T20:36:37.760Z,35.05
2022-12-25T20:39:09.997Z,32.80
2022-12-25T20:41:39.742Z,31.55
2022-12-25T20:44:10.381Z,32.25
2022-12-25T20:46:38.192Z,36.78
2022-12-25T20:49:06.094Z,30.83
2022-12-25T20:51:33.605Z,38.22
2022-12-25T20:54:06.508Z,33.50
2022-12-25T20:56:34.405Z,33.22
2022-12-25T20:59:02.952Z,32.08
2022-12-25T21:01:31.885Z,32.60
2022-12-25T21:03:59.723Z,32.22
2022-12-25T21:06:27.296Z,31.52
2022-12-25T21:08:55.008Z,33.33
2022-12-25T21:11:22.781Z,32.10
2022-12-25T21:13:50.814Z,30.65
2022-12-25T21:16:22.361Z,32.47
2022-12-25T21:18:53.261Z,34.10
2022-12-25T21:21:21.925Z,32.72
2022-12-25T21:23:49.685Z,37.00
2022-12-25T21:26:28.989Z,32.45
2022-12-25T21:29:00.564Z,32.17
2022-12-25T21:31:29.148Z,33.45
2022-12-25T21:33:57.941Z,33.03
2022-12-25T21:36:34.612Z,30.85
2022-12-25T21:39:10.837Z,31.27
2022-12-25T21:41:39.543Z,35.80
2022-12-25T21:44:08.842Z,32.72
2022-12-25T21:46:36.216Z,32.05
2022-12-25T21:49:04.254Z,33.22
2022-12-25T21:51:52.796Z,31.65
2022-12-25T21:54:23.104Z,32.20
2022-12-25T21:56:50.983Z,33.50
2022-12-25T21:59:21.831Z,34.53
2022-12-25T22:01:51.817Z,32.15
2022-12-25T22:04:23.337Z,29.98
2022-12-25T22:07:09.471Z,34.85
2022-12-25T22:09:37.865Z,34.03
2022-12-25T22:12:28.565Z,34.67
2022-12-25T22:15:06.353Z,35.90
2022-12-25T22:17:58.511Z,36.53
2022-12-25T22:20:38.200Z,36.13
2022-12-25T22:23:05.984Z,38.67
2022-12-25T22:25:33.661Z,34.83
2022-12-25T22:28:00.999Z,35.25
2022-12-25T22:30:29.778Z,34.80
2022-12-25T22:32:57.587Z,35.83
2022-12-25T22:35:25.727Z,37.97
2022-12-25T22:37:54.254Z,36.50
2022-12-25T22:40:22.668Z,34.28
2022-12-25T22:42:54.032Z,35.65
2022-12-25T22:45:21.882Z,41.00
2022-12-25T22:47:50.281Z,33.55
2022-12-25T22:50:18.025Z,35.30
2022-12-25T22:52:46.694Z,40.50
2022-12-25T22:55:18.631Z,34.40
2022-12-25T22:57:46.211Z,37.75
2022-12-25T23:00:14.288Z,36.95
2022-12-25T23:02:41.792Z,39.95
2022-12-25T23:05:09.673Z,41.55
2022-12-25T23:07:37.083Z,36.30
2022-12-25T23:10:06.777Z,31.70
2022-12-25T23:12:53.004Z,39.72
2022-12-25T23:15:20.648Z,41.53
2022-12-25T23:18:06.632Z,35.65
2022-12-25T23:20:52.974Z,37.58
2022-12-25T23:23:38.810Z,36.25
2022-12-25T23:26:09.652Z,34.45
2022-12-25T23:29:01.030Z,36.55
2022-12-25T23:31:36.909Z,35.08
2022-12-25T23:34:06.735Z,38.40
2022-12-25T23:36:35.136Z,38.45
2022-12-25T23:39:09.692Z,35.67
2022-12-25T23:41:40.491Z,34.53
2022-12-25T23:44:10.256Z,38.22
2022-12-25T23:46:38.784Z,41.22
2022-12-25T23:49:06.952Z,34.85
2022-12-25T23:51:43.633Z,37.13
2022-12-25T23:54:18.679Z,34.15
2022-12-25T23:56:46.458Z,36.47
2022-12-25T23:59:14.695Z,37.50
